Time;durP1;ratioP1;P1;durP2;ratioP2;P2;SDS_P1;SDS_P2;PMS_P1;PMS_P2;Temp;Humidity;BMP_temperature;BMP_pressure;BME280_temperature;BME280_humidity;BME280_pressure;Samples;Min_cycle;Max_cycle;Signal;HPM_P1;HPM_P2
2022/08/21 00:01:54;;;;;;;16.00;6.95;;;20.90;99.90;;;21.35;70.46;101562.41;4823859;29;20544;-74
2022/08/21 00:04:23;;;;;;;16.67;5.90;;;20.90;99.90;;;21.36;70.65;101562.34;4824100;29;20105;-74
2022/08/21 00:06:57;;;;;;;17.95;5.88;;;20.90;99.90;;;21.35;70.86;101565.13;4824011;29;20058;-74
2022/08/21 00:09:26;;;;;;;15.85;5.60;;;20.90;99.90;;;21.37;70.93;101556.03;4823783;29;20484;-74
2022/08/21 00:11:54;;;;;;;15.02;5.75;;;20.90;99.90;;;21.36;70.68;101553.41;4823731;29;20081;-74
2022/08/21 00:14:23;;;;;;;16.42;5.82;;;20.90;99.90;;;21.38;70.69;101554.22;4823938;29;20058;-74
2022/08/21 00:16:52;;;;;;;13.52;5.75;;;20.90;99.90;;;21.39;70.79;101561.34;4823727;29;20085;-74
2022/08/21 00:19:28;;;;;;;17.10;5.68;;;20.90;99.90;;;21.40;70.65;101552.34;4823685;29;20058;-74
2022/08/21 00:21:56;;;;;;;17.50;6.55;;;20.90;99.90;;;21.40;71.01;101555.91;4822693;29;20135;-74
2022/08/21 00:24:26;;;;;;;14.48;6.10;;;21.00;99.90;;;21.34;70.95;101549.88;4824035;29;20076;-74
2022/08/21 00:26:55;;;;;;;12.30;5.83;;;21.00;99.90;;;21.30;71.17;101551.81;4823797;29;20079;-73
2022/08/21 00:29:23;;;;;;;16.60;6.03;;;20.90;99.90;;;21.26;71.20;101554.66;4823798;29;20049;-74
2022/08/21 00:31:53;;;;;;;16.95;5.82;;;20.90;99.90;;;21.22;71.22;101553.03;4823604;29;20123;-74
2022/08/21 00:34:21;;;;;;;13.23;6.15;;;20.80;99.90;;;21.22;71.34;101551.22;4823781;29;20050;-74
2022/08/21 00:36:50;;;;;;;13.80;6.00;;;20.80;99.90;;;21.11;71.29;101526.53;4825746;29;20055;-72
2022/08/21 00:39:18;;;;;;;14.52;5.70;;;20.80;99.90;;;21.20;71.07;101545.00;4826604;29;20070;-74
2022/08/21 00:41:46;;;;;;;18.20;5.03;;;20.80;99.90;;;21.18;70.73;101543.31;4826602;29;20046;-74
2022/08/21 00:44:17;;;;;;;16.08;5.63;;;20.80;99.90;;;21.16;70.48;101542.47;4827046;29;20084;-74
2022/08/21 00:46:46;;;;;;;10.63;5.05;;;20.80;99.90;;;21.16;70.25;101545.19;4826448;29;20078;-74
2022/08/21 00:49:16;;;;;;;12.32;5.30;;;20.70;99.90;;;21.15;70.10;101535.38;4826963;29;20145;-74
2022/08/21 00:51:50;;;;;;;11.95;5.05;;;20.70;99.90;;;21.14;69.87;101538.97;4825413;29;20055;-74
2022/08/21 00:54:24;;;;;;;9.95;5.00;;;20.70;99.90;;;21.13;69.98;101537.22;4826367;29;20050;-75
2022/08/21 00:56:58;;;;;;;12.95;5.35;;;20.70;99.90;;;21.14;69.82;101542.56;4826346;29;20050;-74
2022/08/21 00:59:30;;;;;;;14.48;6.22;;;20.70;99.90;;;21.13;69.72;101537.22;4826868;29;20085;-74
2022/08/21 01:01:59;;;;;;;15.55;5.47;;;20.70;99.90;;;21.12;69.75;101535.47;4826066;29;20054;-75
2022/08/21 01:04:28;;;;;;;16.30;5.78;;;20.70;99.90;;;21.10;69.86;101532.81;4826566;29;20038;-75
2022/08/21 01:06:57;;;;;;;14.00;6.13;;;20.70;99.90;;;21.10;69.88;101532.81;4826590;29;20108;-75
2022/08/21 01:09:25;;;;;;;19.77;5.95;;;20.70;99.90;;;21.09;69.71;101530.22;4826148;29;20038;-74
2022/08/21 01:11:54;;;;;;;13.77;5.88;;;20.70;99.90;;;21.08;69.76;101528.47;4826050;29;20412;-74
2022/08/21 01:14:23;;;;;;;18.00;5.57;;;20.60;99.90;;;21.04;69.89;101532.19;4826605;29;20133;-75
2022/08/21 01:16:53;;;;;;;13.52;5.57;;;20.60;99.90;;;20.99;69.71;101529.63;4825968;29;20046;-75
2022/08/21 01:19:23;;;;;;;17.05;5.80;;;20.60;99.90;;;20.92;69.55;101524.53;4826227;29;20103;-75
2022/08/21 01:21:54;;;;;;;12.77;5.70;;;20.50;99.90;;;20.75;69.66;101502.75;4825920;29;20137;-74
2022/08/21 01:24:23;;;;;;;13.32;5.43;;;20.50;99.90;;;20.76;69.92;101520.63;4826236;29;20051;-74
2022/08/21 01:26:52;;;;;;;14.30;5.18;;;20.40;99.90;;;20.75;69.96;101524.28;4826323;29;20042;-74
2022/08/21 01:29:32;;;;;;;11.00;5.63;;;20.40;99.90;;;20.67;70.28;101520.03;4825843;29;20138;-74
2022/08/21 01:32:07;;;;;;;13.00;5.68;;;20.30;99.90;;;20.64;70.62;101528.22;4825815;29;20050;-74
2022/08/21 01:34:40;;;;;;;16.85;5.72;;;20.20;99.90;;;20.57;70.71;101525.81;4826104;29;20611;-74
2022/08/21 01:37:10;;;;;;;14.10;5.60;;;20.20;99.90;;;20.19;70.82;101494.84;4825795;29;20533;-75
2022/08/21 01:39:39;;;;;;;13.93;5.75;;;20.00;99.90;;;20.25;71.33;101529.56;4825972;29;20093;-74
2022/08/21 01:42:08;;;;;;;16.40;6.07;;;19.90;99.90;;;20.24;71.54;101525.16;4825881;29;20384;-74
2022/08/21 01:44:37;;;;;;;17.45;5.70;;;19.90;99.90;;;20.20;71.49;101518.13;4825886;29;20051;-74
2022/08/21 01:47:09;;;;;;;11.52;5.03;;;19.80;99.90;;;20.17;71.86;101512.78;4825334;29;20050;-74
2022/08/21 01:49:40;;;;;;;12.05;5.28;;;19.80;99.90;;;20.18;72.33;101514.59;4825881;29;20087;-74
2022/08/21 01:52:11;;;;;;;13.45;5.55;;;19.80;99.90;;;20.16;72.34;101508.38;4826042;29;20073;-73
2022/08/21 01:54:40;;;;;;;12.75;5.30;;;19.80;99.90;;;20.17;72.60;101515.47;4825569;29;20053;-74
2022/08/21 01:57:10;;;;;;;12.25;5.93;;;19.80;99.90;;;20.10;72.74;101505.00;4825456;29;20055;-75
2022/08/21 01:59:38;;;;;;;10.32;4.80;;;19.70;99.90;;;20.11;72.66;101506.78;4825347;29;20054;-74
2022/08/21 02:02:07;;;;;;;11.35;4.65;;;19.70;99.90;;;20.08;72.67;101502.38;4825164;29;20414;-74
2022/08/21 02:04:36;;;;;;;10.98;4.40;;;19.70;99.90;;;20.09;72.86;101501.41;4825337;29;20139;-74
2022/08/21 02:07:04;;;;;;;11.68;5.18;;;19.70;99.90;;;20.05;73.03;101497.13;4825166;29;20053;-74
2022/08/21 02:09:41;;;;;;;15.57;4.85;;;19.70;99.90;;;19.95;73.23;101492.97;4824329;29;20501;-75
2022/08/21 02:12:10;;;;;;;14.23;4.70;;;19.60;99.90;;;19.92;73.22;101470.72;4825776;29;20046;-74
2022/08/21 02:14:38;;;;;;;15.00;6.00;;;19.60;99.90;;;19.98;73.42;101486.59;4825270;29;20304;-74
2022/08/21 02:17:07;;;;;;;13.25;5.05;;;19.60;99.90;;;19.97;73.24;101491.13;4825404;29;20051;-75
2022/08/21 02:19:38;;;;;;;11.53;4.97;;;19.60;99.90;;;19.79;73.41;101465.72;4824164;29;20046;-74
2022/08/21 02:22:09;;;;;;;12.85;5.45;;;19.60;99.90;;;19.98;73.31;101492.84;4825201;29;20303;-75
2022/08/21 02:24:39;;;;;;;12.80;5.43;;;19.60;99.90;;;19.86;73.38;101498.63;4825320;29;20453;-75
2022/08/21 02:27:22;;;;;;;12.05;5.47;;;19.60;99.90;;;19.97;73.37;101490.22;4824945;29;20144;-74
2022/08/21 02:29:56;;;;;;;15.13;4.68;;;19.60;99.90;;;20.01;73.38;101498.13;4824996;29;20053;-74
2022/08/21 02:32:25;;;;;;;;;;;19.60;99.90;;;20.04;73.21;101498.03;4825583;29;20058;-75
2022/08/21 02:34:54;;;;;;;13.07;5.70;;;19.70;99.90;;;19.98;73.23;101484.78;4825139;29;19981;-73
2022/08/21 02:37:22;;;;;;;15.45;5.75;;;19.70;99.90;;;20.04;73.30;101497.13;4824892;29;20091;-74
2022/08/21 02:39:52;;;;;;;9.68;4.57;;;19.60;99.90;;;20.04;73.14;101495.34;4824821;29;20129;-73
2022/08/21 02:42:21;;;;;;;14.75;4.95;;;19.60;99.90;;;20.02;73.10;101489.13;4824980;29;20057;-73
2022/08/21 02:44:49;;;;;;;10.95;5.38;;;19.70;99.90;;;20.07;73.00;101495.25;4824762;29;20050;-73
2022/08/21 02:47:17;;;;;;;10.10;5.10;;;19.70;99.90;;;20.06;73.13;101493.47;4824624;29;20050;-73
2022/08/21 02:49:46;;;;;;;10.93;4.95;;;19.60;99.90;;;20.02;73.31;101489.13;4824705;29;20077;-73
2022/08/21 02:52:14;;;;;;;12.00;5.85;;;19.70;99.90;;;19.98;73.43;101486.59;4824623;29;20057;-73
2022/08/21 02:54:42;;;;;;;12.05;5.25;;;19.60;99.90;;;19.97;73.56;101492.91;4824620;29;20049;-73
2022/08/21 02:57:12;;;;;;;17.27;5.95;;;19.60;99.90;;;19.95;73.71;101492.97;4824570;29;20054;-73
2022/08/21 02:59:41;;;;;;;12.47;5.37;;;19.60;99.90;;;19.95;73.66;101492.97;4824433;29;20054;-74
2022/08/21 03:02:11;;;;;;;14.32;5.15;;;19.50;99.90;;;20.00;73.57;101488.31;4824458;29;20089;-73
2022/08/21 03:04:39;;;;;;;12.00;5.45;;;19.50;99.90;;;19.99;73.81;101483.00;4824564;29;20058;-73
2022/08/21 03:07:15;;;;;;;14.77;5.88;;;19.60;99.90;;;20.00;73.80;101477.56;4824660;29;20485;-73
2022/08/21 03:09:43;;;;;;;14.10;5.57;;;19.60;99.90;;;20.02;74.01;101478.41;4824441;29;20046;-74
2022/08/21 03:12:25;;;;;;;13.95;6.38;;;19.60;99.90;;;20.03;73.64;101474.78;4824716;29;20057;-73
2022/08/21 03:14:57;;;;;;;18.55;6.10;;;19.60;99.90;;;20.04;73.82;101481.91;4824665;29;20050;-74
2022/08/21 03:17:26;;;;;;;14.50;5.75;;;19.60;99.90;;;20.01;73.79;101476.66;4824363;29;20053;-73
2022/08/21 03:19:57;;;;;;;14.13;5.93;;;19.60;99.90;;;20.01;73.88;101470.41;4824382;29;20046;-73
2022/08/21 03:22:26;;;;;;;17.35;6.22;;;19.60;99.90;;;19.95;74.22;101468.78;4824507;29;20043;-73
2022/08/21 03:24:57;;;;;;;15.43;5.88;;;19.60;99.90;;;19.93;74.42;101467.97;4824495;29;20540;-73
2022/08/21 03:27:27;;;;;;;12.80;5.67;;;19.50;99.90;;;19.90;74.70;101465.38;4824181;29;20043;-73
2022/08/21 03:29:57;;;;;;;17.02;6.10;;;19.50;99.90;;;19.86;74.68;101463.72;4823547;29;20326;-74
2022/08/21 03:32:26;;;;;;;14.43;6.10;;;19.40;99.90;;;19.82;74.94;101462.09;4824183;29;20049;-74
2022/08/21 03:34:54;;;;;;;15.73;5.82;;;19.40;99.90;;;19.76;75.39;101459.59;4824144;29;20054;-73
2022/08/21 03:37:24;;;;;;;15.15;6.07;;;19.40;99.90;;;19.78;75.67;101463.97;4824067;29;20413;-73
2022/08/21 03:39:52;;;;;;;11.05;5.70;;;19.30;99.90;;;19.77;75.69;101455.97;4823224;29;20115;-73
2022/08/21 03:42:21;;;;;;;16.02;5.95;;;19.30;99.90;;;19.75;75.68;101449.75;4824511;29;20058;-73
2022/08/21 03:44:51;;;;;;;17.60;6.53;;;19.30;99.90;;;19.65;75.99;101457.25;4824217;29;20141;-73
2022/08/21 03:47:19;;;;;;;16.45;6.22;;;19.30;99.90;;;19.66;76.24;101453.66;4824259;29;20065;-73
2022/08/21 03:49:47;;;;;;;17.90;6.30;;;19.30;99.90;;;19.66;76.52;101456.34;4823927;29;20592;-73
2022/08/21 03:52:16;;;;;;;13.23;6.18;;;19.30;99.90;;;19.69;76.44;101458.00;4823932;29;20077;-73
2022/08/21 03:54:46;;;;;;;13.75;6.20;;;19.20;99.90;;;19.68;76.52;101457.16;4823994;29;20049;-73
2022/08/21 03:57:15;;;;;;;10.27;5.95;;;19.30;99.90;;;19.70;76.71;101457.09;4823799;29;20054;-72
2022/08/21 03:59:44;;;;;;;16.38;6.22;;;19.30;99.90;;;19.69;76.60;101445.47;4823836;29;20050;-73
2022/08/21 04:02:18;;;;;;;16.10;6.03;;;19.30;99.90;;;19.69;76.67;101448.16;4823777;29;20054;-73
2022/08/21 04:04:46;;;;;;;15.43;5.93;;;19.30;99.90;;;19.67;77.30;101449.13;4823932;29;20074;-73
2022/08/21 04:07:14;;;;;;;19.95;6.55;;;19.20;99.90;;;19.64;77.41;101458.19;4823862;29;20049;-73
2022/08/21 04:09:43;;;;;;;16.23;6.55;;;19.30;99.90;;;19.65;77.63;101456.34;4823766;29;20046;-73
2022/08/21 04:12:11;;;;;;;14.27;6.50;;;19.30;99.90;;;19.58;77.80;101444.97;4826592;29;20125;-73
2022/08/21 04:14:39;;;;;;;13.90;6.25;;;19.20;99.90;;;19.57;78.09;101453.91;4827036;29;20069;-73
2022/08/21 04:17:07;;;;;;;15.63;6.60;;;19.20;99.90;;;19.57;78.26;101456.59;4827050;29;20046;-73
2022/08/21 04:19:37;;;;;;;16.48;6.47;;;19.20;99.90;;;19.60;78.25;101463.69;4826981;29;20051;-72
2022/08/21 04:22:05;;;;;;;16.25;6.68;;;19.20;99.90;;;19.61;78.38;101470.78;4826974;29;20138;-73
2022/08/21 04:24:34;;;;;;;18.40;7.03;;;19.20;99.90;;;19.58;78.51;101471.78;4827334;29;20087;-73
2022/08/21 04:27:02;;;;;;;13.00;5.97;;;19.20;99.90;;;19.64;78.47;101471.59;4827084;29;20056;-73
2022/08/21 04:29:31;;;;;;;18.15;6.50;;;19.20;99.90;;;19.64;78.25;101476.97;4826668;29;20047;-73
2022/08/21 04:31:59;;;;;;;16.13;6.60;;;19.20;99.90;;;19.62;78.27;101475.25;4826763;29;20077;-73
2022/08/21 04:34:27;;;;;;;21.45;7.18;;;19.20;99.90;;;19.63;78.16;101480.56;4826927;29;20404;-72
2022/08/21 04:36:57;;;;;;;17.35;6.78;;;19.20;99.90;;;19.59;78.36;101480.69;4826665;29;20068;-73
2022/08/21 04:39:25;;;;;;;13.90;6.75;;;19.20;99.90;;;19.58;78.34;101478.97;4827107;29;20401;-73
2022/08/21 04:41:57;;;;;;;23.73;7.32;;;19.10;99.90;;;19.57;78.57;101486.13;4826979;29;20133;-73
2022/08/21 04:44:25;;;;;;;18.02;7.53;;;19.10;99.90;;;19.59;78.90;101488.75;4826547;29;20474;-73
2022/08/21 04:46:53;;;;;;;17.17;7.57;;;19.10;99.90;;;18.99;78.77;101377.97;4826727;29;20054;-72
2022/08/21 04:49:22;;;;;;;18.90;6.65;;;19.10;99.90;;;19.59;79.14;101491.44;4825471;29;20046;-73
2022/08/21 04:51:50;;;;;;;17.42;6.93;;;19.10;99.90;;;19.65;79.26;101500.19;4826678;29;20121;-73
2022/08/21 04:54:23;;;;;;;16.73;7.35;;;19.20;99.90;;;19.65;79.19;101499.31;4825458;29;20133;-73
2022/08/21 04:56:55;;;;;;;17.75;7.15;;;19.20;99.90;;;19.66;79.35;101507.34;4826678;29;20107;-73
2022/08/21 04:59:28;;;;;;;18.17;7.00;;;19.20;99.90;;;19.67;79.21;101498.34;4825655;29;20482;-73
2022/08/21 05:01:57;;;;;;;17.13;7.50;;;19.20;99.90;;;19.70;79.37;101500.06;4826368;29;20042;-73
2022/08/21 05:04:30;;;;;;;18.33;7.97;;;19.30;99.90;;;19.76;79.15;101502.56;4826294;29;20054;-73
2022/08/21 05:07:03;;;;;;;15.38;7.63;;;19.30;99.90;;;19.81;79.16;101500.59;4826348;29;20122;-73
2022/08/21 05:09:34;;;;;;;17.00;7.38;;;19.40;99.90;;;19.85;79.36;101507.63;4826209;29;20070;-73
2022/08/21 05:12:04;;;;;;;21.50;8.80;;;19.40;99.90;;;19.92;79.40;101505.63;4824888;29;20081;-73
2022/08/21 05:14:32;;;;;;;22.17;9.17;;;19.50;99.90;;;19.96;79.19;101502.75;4826055;29;20046;-72
2022/08/21 05:17:01;;;;;;;19.17;7.75;;;19.60;99.90;;;20.01;79.50;101498.13;4826605;29;20140;-73
2022/08/21 05:19:29;;;;;;;26.08;9.95;;;19.60;99.90;;;20.07;79.17;101492.56;4826196;29;20082;-73
2022/08/21 05:21:58;;;;;;;16.55;8.55;;;19.70;99.90;;;20.14;78.93;101499.47;4824126;29;20050;-72
2022/08/21 05:24:26;;;;;;;18.05;8.50;;;19.70;99.90;;;20.25;78.84;101504.50;4825764;29;20138;-73
2022/08/21 05:26:56;;;;;;;19.35;8.43;;;19.80;99.90;;;20.30;78.69;101497.19;4825934;29;20042;-72
2022/08/21 05:29:24;;;;;;;15.98;8.77;;;19.90;99.90;;;20.38;78.35;101503.19;4825779;29;20133;-72
2022/08/21 05:31:54;;;;;;;19.77;8.60;;;20.00;99.90;;;20.44;78.38;101502.97;4825773;29;20511;-72
2022/08/21 05:34:24;;;;;;;19.42;8.50;;;20.10;99.90;;;20.54;78.24;101502.56;4824772;29;20493;-73
2022/08/21 05:36:52;;;;;;;18.05;8.48;;;20.10;99.90;;;20.63;77.75;101494.19;4825763;29;20055;-73
2022/08/21 05:39:20;;;;;;;21.45;8.25;;;20.20;99.90;;;20.73;77.50;101502.78;4825709;29;20133;-73
2022/08/21 05:41:49;;;;;;;17.27;7.93;;;20.30;99.90;;;20.86;77.10;101500.56;4824561;29;20047;-72
2022/08/21 05:44:18;;;;;;;17.98;7.85;;;20.40;99.90;;;20.91;76.98;101502.13;4826108;29;20050;-74
2022/08/21 05:46:49;;;;;;;19.85;8.27;;;20.50;99.90;;;20.98;76.81;101502.78;4826065;29;20054;-72
2022/08/21 05:49:18;;;;;;;17.50;8.43;;;20.60;99.90;;;21.04;76.65;101490.00;4825383;29;20046;-73
2022/08/21 05:51:46;;;;;;;18.48;8.50;;;20.70;99.90;;;21.21;76.28;101490.28;4825405;29;20050;-73
2022/08/21 05:54:14;;;;;;;18.00;8.10;;;20.80;99.90;;;21.43;75.84;101491.19;4825347;29;20053;-74
2022/08/21 05:56:44;;;;;;;15.20;7.72;;;21.00;99.90;;;21.57;75.45;101501.41;4825422;29;20130;-73
2022/08/21 05:59:12;;;;;;;17.40;8.15;;;21.20;99.90;;;21.72;75.03;101500.78;4824355;29;20157;-73
2022/08/21 06:01:42;;;;;;;24.98;8.65;;;21.30;99.90;;;21.92;74.38;101510.78;4825230;29;20130;-73
2022/08/21 06:04:11;;;;;;;19.58;7.88;;;21.50;99.90;;;22.03;73.75;101508.53;4825300;29;20050;-73
2022/08/21 06:06:39;;;;;;;19.23;7.72;;;21.60;99.90;;;22.21;73.73;101516.75;4824277;29;20564;-73
2022/08/21 06:09:08;;;;;;;19.35;8.20;;;21.80;99.90;;;22.23;72.83;101508.59;4825155;29;20054;-73
2022/08/21 06:11:36;;;;;;;18.38;7.82;;;21.90;99.90;;;22.29;72.92;101506.53;4825241;29;20041;-74
2022/08/21 06:14:06;;;;;;;16.65;7.65;;;22.00;99.90;;;22.44;72.52;101518.44;4824167;29;20092;-73
2022/08/21 06:16:34;;;;;;;18.48;7.57;;;22.00;99.90;;;22.54;72.60;101513.53;4825626;29;20522;-73
2022/08/21 06:19:04;;;;;;;18.67;7.65;;;22.10;99.90;;;22.18;72.44;101441.38;4824076;29;20077;-72
2022/08/21 06:21:32;;;;;;;16.37;7.33;;;22.20;99.90;;;22.58;72.30;101490.91;4824081;29;20062;-72
2022/08/21 06:24:00;;;;;;;16.17;7.95;;;22.30;99.90;;;22.63;72.20;101499.72;4824984;29;20042;-74
2022/08/21 06:26:29;;;;;;;19.80;8.07;;;22.30;99.90;;;22.82;72.10;101508.72;4823861;29;20086;-73
2022/08/21 06:28:57;;;;;;;22.67;8.13;;;22.40;99.90;;;22.89;71.77;101510.19;4824881;29;20076;-74
2022/08/21 06:31:28;;;;;;;16.67;7.60;;;22.50;99.90;;;23.03;71.47;101515.88;4824847;29;20539;-74
2022/08/21 06:33:57;;;;;;;15.68;6.90;;;22.60;99.90;;;23.09;71.17;101515.59;4824401;29;20081;-73
2022/08/21 06:36:27;;;;;;;16.17;7.75;;;22.60;99.90;;;23.11;70.99;101511.00;4824784;29;20081;-73
2022/08/21 06:38:55;;;;;;;24.17;8.60;;;22.70;99.90;;;23.14;71.10;101509.03;4825013;29;20087;-73
2022/08/21 06:41:25;;;;;;;19.50;8.02;;;22.80;99.90;;;23.11;71.28;101506.44;4825199;29;20057;-73
2022/08/21 06:43:55;;;;;;;22.83;7.88;;;22.70;99.90;;;23.17;71.44;101511.56;4824850;29;20046;-73
2022/08/21 06:46:25;;;;;;;16.58;6.97;;;22.80;99.90;;;23.24;71.21;101517.56;4824623;29;20042;-74
2022/08/21 06:48:54;;;;;;;21.77;6.78;;;22.80;99.90;;;23.21;71.28;101493.41;4824637;29;20501;-74
2022/08/21 06:51:22;;;;;;;21.13;6.85;;;22.90;99.90;;;23.51;71.08;101515.44;4823494;29;20066;-73
2022/08/21 06:53:52;;;;;;;16.05;6.55;;;23.10;99.90;;;23.64;70.64;101513.88;4825159;29;20125;-73
2022/08/21 06:56:21;;;;;;;18.88;7.68;;;23.20;99.90;;;23.71;70.17;101523.47;4824888;29;20404;-71
2022/08/21 06:58:49;;;;;;;13.68;6.18;;;23.30;99.90;;;23.72;70.34;101519.81;4824410;29;20145;-73
2022/08/21 07:01:18;;;;;;;14.93;6.32;;;23.30;99.90;;;23.66;70.06;101512.88;4824519;29;20125;-73
2022/08/21 07:03:46;;;;;;;20.52;6.85;;;23.30;99.90;;;23.79;70.17;101514.03;4824722;29;20149;-73
2022/08/21 07:06:14;;;;;;;15.82;6.55;;;23.30;99.90;;;23.87;69.98;101508.25;4824948;29;20133;-74
2022/08/21 07:08:43;;;;;;;19.58;6.70;;;23.40;99.90;;;23.90;69.56;101500.88;4824352;29;20420;-74
2022/08/21 07:11:19;;;;;;;16.40;6.40;;;23.50;99.90;;;23.94;69.15;101510.56;4824232;29;20070;-73
2022/08/21 07:13:48;;;;;;;13.95;6.18;;;23.50;99.90;;;24.14;69.60;101518.59;4823464;29;20058;-72
2022/08/21 07:16:16;;;;;;;15.18;6.10;;;23.70;99.90;;;24.20;68.72;101516.56;4824177;29;20476;-74
2022/08/21 07:18:44;;;;;;;16.15;6.03;;;23.70;99.90;;;24.23;68.15;101521.81;4824247;29;20149;-74
2022/08/21 07:21:13;;;;;;;15.10;6.22;;;23.80;99.90;;;24.26;68.83;101527.94;4824204;29;20113;-73
2022/08/21 07:23:45;;;;;;;15.70;6.50;;;23.80;99.90;;;24.39;68.69;101530.91;4824206;29;20054;-73
2022/08/21 07:26:18;;;;;;;16.15;5.93;;;23.90;99.90;;;24.40;68.12;101530.81;4824091;29;20548;-73
2022/08/21 07:28:46;;;;;;;16.42;6.78;;;24.00;99.90;;;24.45;67.66;101522.47;4823969;29;20050;-71
2022/08/21 07:31:17;;;;;;;16.35;5.78;;;24.10;99.90;;;24.52;67.79;101518.50;4824020;29;20477;-67
2022/08/21 07:33:46;;;;;;;15.63;6.20;;;24.10;99.90;;;24.49;67.87;101524.03;4824308;29;20058;-67
2022/08/21 07:36:15;;;;;;;15.02;6.35;;;24.10;99.90;;;24.68;68.12;101514.91;4824036;29;20095;-67
2022/08/21 07:38:44;;;;;;;17.38;6.35;;;24.20;99.90;;;24.82;67.43;101519.63;4824199;29;20054;-66
2022/08/21 07:41:19;;;;;;;18.25;6.40;;;24.30;99.90;;;24.90;67.67;101520.09;4823937;29;20050;-67
2022/08/21 07:43:48;;;;;;;15.02;5.30;;;24.50;99.90;;;24.97;66.67;101521.53;4823983;29;20110;-66
2022/08/21 07:46:20;;;;;;;17.60;6.20;;;24.50;99.90;;;25.05;66.32;101527.38;4826011;29;20058;-68
2022/08/21 07:48:48;;;;;;;18.92;5.97;;;24.60;99.90;;;25.18;66.22;101536.63;4827333;29;20103;-68
2022/08/21 07:51:19;;;;;;;17.52;6.05;;;24.70;99.90;;;25.20;65.83;101531.13;4827167;29;20408;-69
2022/08/21 07:53:50;;;;;;;16.02;5.70;;;24.80;99.90;;;25.25;65.95;101532.63;4827760;29;20133;-68
2022/08/21 07:56:21;;;;;;;13.75;5.35;;;24.80;99.90;;;25.17;65.97;101531.25;4827618;29;20051;-69
2022/08/21 07:58:49;;;;;;;15.63;4.82;;;24.80;99.90;;;25.27;65.76;101529.81;4826273;29;20524;-68
2022/08/21 08:01:18;;;;;;;20.95;5.10;;;24.80;99.90;;;25.37;65.31;101528.34;4827247;29;20039;-67
2022/08/21 08:03:47;;;;;;;13.52;5.50;;;24.90;99.90;;;25.43;64.70;101531.66;4827353;29;20556;-67
2022/08/21 08:06:18;;;;;;;17.20;5.35;;;25.00;99.90;;;25.36;64.36;101524.75;4827046;29;20428;-66
2022/08/21 08:08:47;;;;;;;16.23;5.35;;;25.00;99.90;;;25.32;64.94;101527.75;4827343;29;20054;-66
2022/08/21 08:11:16;;;;;;;16.42;6.40;;;24.90;99.90;;;25.27;64.97;101511.72;4826738;29;20039;-66
2022/08/21 08:13:49;;;;;;;18.80;5.57;;;24.90;99.90;;;25.29;65.84;101517.94;4827355;29;20050;-65
2022/08/21 08:16:19;;;;;;;17.27;5.35;;;24.80;99.90;;;25.39;64.86;101518.31;4826983;29;20107;-67
2022/08/21 08:18:47;;;;;;;14.55;5.00;;;25.00;99.90;;;25.02;64.00;101438.22;4826940;29;20042;-67
2022/08/21 08:21:18;;;;;;;16.58;5.43;;;25.00;99.90;;;25.52;63.90;101516.69;4827389;29;20042;-66
2022/08/21 08:23:46;;;;;;;14.23;4.72;;;25.10;99.90;;;25.58;63.39;101510.94;4825540;29;20527;-65
2022/08/21 08:26:15;;;;;;;16.38;5.50;;;25.20;99.90;;;25.66;63.58;101514.97;4826814;29;20074;-66
2022/08/21 08:28:43;;;;;;;13.30;4.72;;;25.20;99.90;;;25.74;63.23;101522.66;4826771;29;20107;-65
2022/08/21 08:31:13;;;;;;;15.52;4.97;;;25.30;99.90;;;25.85;62.49;101529.22;4826674;29;20093;-67
2022/08/21 08:33:41;;;;;;;17.00;5.40;;;25.40;99.90;;;25.77;61.72;101511.63;4826754;29;20497;-65
2022/08/21 08:36:15;;;;;;;18.00;5.32;;;25.40;99.90;;;25.76;62.76;101526.16;4825639;29;20291;-67
2022/08/21 08:38:44;;;;;;;15.05;4.97;;;25.40;99.90;;;25.92;62.46;101513.47;4826543;29;20054;-67
2022/08/21 08:41:15;;;;;;;18.00;5.03;;;25.50;99.90;;;26.06;61.46;101499.13;4826883;29;20141;-69
2022/08/21 08:43:51;;;;;;;13.10;4.60;;;25.70;99.90;;;26.13;60.76;101511.41;4827116;29;20077;-67
2022/08/21 08:46:32;;;;;;;14.45;4.38;;;25.80;99.90;;;26.27;60.18;101506.00;4826513;29;20077;-67
2022/08/21 08:49:07;;;;;;;11.27;4.40;;;25.90;99.90;;;26.23;59.06;101509.91;4826466;29;20061;-70
2022/08/21 08:51:45;;;;;;;10.27;4.32;;;25.80;99.90;;;26.28;60.06;101505.06;4826325;29;20046;-72
2022/08/21 08:54:18;;;;;;;14.25;4.53;;;25.90;99.90;;;26.38;58.99;101504.44;4825356;29;20054;-69
2022/08/21 08:56:47;;;;;;;16.73;4.75;;;25.90;99.90;;;26.54;59.36;101507.06;4826182;29;20074;-71
2022/08/21 08:59:20;;;;;;;12.60;4.28;;;26.10;99.90;;;26.51;58.31;101501.84;4826533;29;20074;-68
2022/08/21 09:01:51;;;;;;;13.70;4.57;;;26.10;99.90;;;26.39;57.83;101513.44;4825205;29;20078;-66
2022/08/21 09:04:22;;;;;;;;;;;26.00;99.90;;;26.11;56.08;101494.34;4826676;29;20125;-68
2022/08/21 09:07:06;;;;;;;11.32;3.70;;;25.90;99.90;;;26.15;56.42;101515.75;4826511;29;19925;-67
2022/08/21 09:09:49;;;;;;;12.85;4.28;;;25.70;99.90;;;26.06;56.72;101515.41;4826309;29;20084;-72
2022/08/21 09:12:32;;;;;;;12.85;4.25;;;25.70;99.90;;;26.02;57.17;101520.09;4825910;29;20567;-67
2022/08/21 09:15:10;;;;;;;14.05;4.68;;;25.60;99.90;;;26.08;57.62;101518.91;4826132;29;20050;-67
2022/08/21 09:18:01;;;;;;;11.02;4.45;;;25.60;99.90;;;25.93;57.44;101515.22;4826312;29;20071;-66
2022/08/21 09:20:42;;;;;;;14.68;4.38;;;25.50;99.90;;;25.97;58.05;101524.94;4826003;29;20051;-70
2022/08/21 09:23:25;;;;;;;12.48;4.60;;;25.50;99.90;;;26.00;58.27;101505.75;4826239;29;20153;-76
2022/08/21 09:26:03;;;;;;;13.48;3.92;;;25.50;99.90;;;26.07;58.54;101523.47;4826236;29;20054;-68
2022/08/21 09:28:34;;;;;;;12.20;4.72;;;25.60;99.90;;;25.83;58.80;101509.47;4825843;29;20089;-63
2022/08/21 09:31:07;;;;;;;33.70;6.07;;;25.60;99.90;;;25.87;58.29;101532.72;4825987;29;20127;-61
2022/08/21 09:33:37;;;;;;;13.25;4.65;;;25.50;99.90;;;25.63;59.10;101522.38;4825872;29;20141;-64
2022/08/21 09:36:06;;;;;;;11.77;4.30;;;25.30;99.90;;;25.41;59.85;101527.25;4824806;29;20058;-63
2022/08/21 09:38:37;;;;;;;15.73;4.68;;;25.00;99.90;;;25.30;60.52;101544.06;4825956;29;20335;-63
2022/08/21 09:41:09;;;;;;;14.18;4.38;;;24.90;99.90;;;25.43;61.92;101531.66;4826035;29;20078;-64
2022/08/21 09:43:39;;;;;;;14.85;4.28;;;25.00;99.90;;;25.53;60.70;101529.31;4825586;29;20098;-64
2022/08/21 09:46:13;;;;;;;14.45;4.68;;;25.20;99.90;;;25.47;60.47;101522.38;4825538;29;20119;-64
2022/08/21 09:48:47;;;;;;;10.93;4.38;;;25.20;99.90;;;25.37;60.59;101521.09;4825553;29;20462;-64
2022/08/21 09:51:22;;;;;;;10.32;4.30;;;25.00;99.90;;;25.61;60.95;101516.19;4825498;29;20103;-63
2022/08/21 09:53:59;;;;;;;8.80;3.78;;;25.20;99.90;;;25.43;59.73;101515.38;4825416;29;20046;-63
2022/08/21 09:59:30;;;;;;;11.93;4.10;;;25.20;99.90;;;25.41;60.31;101492.94;4825710;29;20074;-64
2022/08/21 10:02:28;;;;;;;11.13;4.45;;;25.20;99.90;;;25.73;59.84;101519.06;4825543;29;20054;-62
2022/08/21 10:05:06;;;;;;;7.97;3.75;;;25.30;99.90;;;25.88;57.73;101512.78;4824243;29;20416;-65
2022/08/21 10:07:37;;;;;;;13.85;4.03;;;25.50;99.90;;;25.92;57.22;101489.94;4825094;29;20218;-62
2022/08/21 10:10:10;;;;;;;9.45;3.50;;;25.70;99.90;;;26.12;56.02;101494.25;4823654;29;20055;-64
2022/08/21 10:12:50;;;;;;;11.38;4.13;;;25.80;99.90;;;26.32;54.85;101501.19;4825495;29;20066;-62
2022/08/21 10:15:37;;;;;;;10.27;4.07;;;25.90;99.90;;;26.42;54.36;101515.97;4825375;29;20050;-61
2022/08/21 10:18:22;;;;;;;11.73;3.80;;;26.00;99.90;;;26.50;54.91;101513.69;4825182;29;20322;-61
2022/08/21 10:21:02;;;;;;;8.68;3.55;;;26.10;99.90;;;26.53;53.52;101511.66;4824795;29;20046;-62
2022/08/21 10:23:46;;;;;;;10.05;3.85;;;26.10;99.90;;;26.62;53.32;101515.63;4825181;29;20050;-62
2022/08/21 10:26:32;;;;;;;8.20;3.10;;;26.20;99.90;;;26.77;54.66;101510.16;4824811;29;20054;-62